Time;durP1;ratioP1;P1;durP2;ratioP2;P2;SDS_P1;SDS_P2;PMS_P1;PMS_P2;Temp;Humidity;BMP_temperature;BMP_pressure;BME280_temperature;BME280_humidity;BME280_pressure;Samples;Min_cycle;Max_cycle;Signal;HPM_P1;HPM_P2
2023/05/19 00:01:13;;;;;;;15.38;7.32;;;8.00;99.90;;;;;;4940845;28;20043;-82
2023/05/19 00:03:56;;;;;;;17.35;7.63;;;8.00;99.90;;;;;;4972679;28;20047;-82
2023/05/19 00:06:30;;;;;;;16.35;7.85;;;8.00;99.90;;;;;;4940691;28;20094;-82
2023/05/19 00:09:06;;;;;;;15.70;7.30;;;7.90;99.90;;;;;;4956477;28;20046;-81
2023/05/19 00:11:35;;;;;;;17.65;8.07;;;7.90;99.90;;;;;;4940563;28;20043;-81
2023/05/19 00:14:02;;;;;;;15.00;7.65;;;7.90;99.90;;;;;;4972474;28;20487;-81
2023/05/19 00:16:29;;;;;;;16.77;8.10;;;7.90;99.90;;;;;;4940861;28;20043;-81
2023/05/19 00:18:58;;;;;;;16.05;8.20;;;7.80;99.90;;;;;;4972790;28;20525;-81
2023/05/19 00:21:25;;;;;;;16.98;8.13;;;7.80;99.90;;;;;;4973833;28;20047;-82
2023/05/19 00:23:51;;;;;;;19.77;8.80;;;7.80;99.90;;;;;;4976007;28;20090;-81
2023/05/19 00:26:17;;;;;;;18.25;8.43;;;7.80;99.90;;;;;;4976000;28;20047;-81
2023/05/19 00:28:43;;;;;;;16.02;8.30;;;7.80;99.90;;;;;;4976189;28;20065;-81
2023/05/19 00:31:09;;;;;;;16.65;8.27;;;7.80;99.90;;;;;;4975921;28;20042;-81
2023/05/19 00:33:34;;;;;;;15.45;8.38;;;7.70;99.90;;;;;;4975688;28;20055;-83
2023/05/19 00:36:02;;;;;;;17.90;8.45;;;7.70;99.90;;;;;;4944075;28;20039;-82
2023/05/19 00:38:32;;;;;;;19.80;8.85;;;7.70;99.90;;;;;;4975595;28;20039;-82
2023/05/19 00:40:58;;;;;;;19.13;8.43;;;7.80;99.90;;;;;;4975711;28;20043;-82
2023/05/19 00:43:25;;;;;;;19.10;8.55;;;7.70;99.90;;;;;;4975969;28;20507;-81
2023/05/19 00:45:51;;;;;;;19.23;8.90;;;7.70;99.90;;;;;;4975968;28;20559;-81
2023/05/19 00:48:17;;;;;;;17.33;8.95;;;7.70;99.90;;;;;;4943502;28;20125;-81
2023/05/19 00:50:43;;;;;;;21.77;9.40;;;7.70;99.90;;;;;;4975543;28;20051;-81
2023/05/19 00:53:09;;;;;;;23.00;9.40;;;7.70;99.90;;;;;;4943371;28;20051;-81
2023/05/19 00:55:39;;;;;;;22.95;9.18;;;7.60;99.90;;;;;;4943482;28;20038;-81
2023/05/19 00:58:06;;;;;;;21.30;8.70;;;7.60;99.90;;;;;;4975649;28;20122;-82
2023/05/19 01:00:33;;;;;;;20.88;9.02;;;7.60;99.90;;;;;;4975622;28;20435;-81
2023/05/19 01:02:59;;;;;;;19.75;9.05;;;7.60;99.90;;;;;;4975351;28;20042;-81
2023/05/19 01:05:25;;;;;;;18.77;8.98;;;7.60;99.90;;;;;;4943277;28;20090;-81
2023/05/19 01:07:52;;;;;;;19.58;8.98;;;7.60;99.90;;;;;;4975351;28;20494;-81
2023/05/19 01:10:21;;;;;;;19.92;9.50;;;7.50;99.90;;;;;;4975219;28;20100;-82
2023/05/19 01:12:48;;;;;;;18.38;9.25;;;7.50;99.90;;;;;;4975126;28;20043;-82
2023/05/19 01:15:14;;;;;;;19.83;9.43;;;7.50;99.90;;;;;;4942977;28;20046;-81
2023/05/19 01:17:53;;;;;;;21.92;9.82;;;7.50;99.90;;;;;;4975304;28;20418;-82
2023/05/19 01:20:26;;;;;;;21.17;9.70;;;7.50;99.90;;;;;;4975318;28;20081;-81
2023/05/19 01:23:15;;;;;;;19.30;9.73;;;7.50;99.90;;;;;;4942941;28;20058;-81
2023/05/19 01:26:02;;;;;;;18.73;9.18;;;7.50;99.90;;;;;;4943264;28;20422;-82
2023/05/19 01:28:47;;;;;;;18.02;8.82;;;7.50;99.90;;;;;;4974924;28;20074;-83
2023/05/19 01:31:14;;;;;;;20.52;9.27;;;7.50;99.90;;;;;;4974891;28;20061;-82
2023/05/19 01:33:42;;;;;;;19.40;9.10;;;7.40;99.90;;;;;;4986122;28;20086;-82
2023/05/19 01:36:09;;;;;;;18.05;9.07;;;7.40;99.90;;;;;;4982171;28;20023;-82
2023/05/19 01:38:37;;;;;;;19.00;9.02;;;7.40;99.90;;;;;;4982700;28;20057;-83
2023/05/19 01:41:05;;;;;;;18.60;9.38;;;7.40;99.90;;;;;;4962951;28;20482;-82
2023/05/19 01:43:32;;;;;;;20.10;9.35;;;7.40;99.90;;;;;;4977075;28;20058;-82
2023/05/19 01:45:59;;;;;;;19.10;9.80;;;7.40;99.90;;;;;;4944478;28;20090;-82
2023/05/19 01:48:26;;;;;;;17.92;8.52;;;7.40;99.90;;;;;;4943397;28;20073;-82
2023/05/19 01:50:51;;;;;;;20.38;9.80;;;7.30;99.90;;;;;;4974920;28;20046;-83
2023/05/19 01:53:17;;;;;;;18.15;9.38;;;7.30;99.90;;;;;;4942764;28;20568;-83
2023/05/19 01:55:49;;;;;;;17.10;9.75;;;7.30;99.90;;;;;;4910834;28;20434;-82
2023/05/19 01:58:20;;;;;;;19.30;9.45;;;7.30;99.90;;;;;;4942278;28;20049;-82
2023/05/19 02:01:18;;;;;;;20.88;10.13;;;7.20;99.90;;;;;;4974388;28;20039;-82
2023/05/19 02:04:13;;;;;;;19.23;9.68;;;7.20;99.90;;;;;;4974645;28;20054;-82
2023/05/19 02:06:51;;;;;;;18.42;9.43;;;7.20;99.90;;;;;;4942394;28;20533;-82
2023/05/19 02:09:41;;;;;;;14.93;8.00;;;7.10;99.90;;;;;;4974210;28;20051;-82
2023/05/19 02:12:24;;;;;;;16.42;8.40;;;7.10;99.90;;;;;;4941853;28;20047;-82
2023/05/19 02:15:14;;;;;;;24.30;9.75;;;7.20;99.90;;;;;;4942302;28;20395;-82
2023/05/19 02:17:43;;;;;;;21.23;9.95;;;7.20;99.90;;;;;;4941951;28;20039;-81
2023/05/19 02:20:10;;;;;;;18.05;9.80;;;7.10;99.90;;;;;;4973951;28;20042;-81
2023/05/19 02:22:36;;;;;;;20.33;10.02;;;7.20;99.90;;;;;;4974235;28;20121;-81
2023/05/19 02:25:02;;;;;;;20.05;9.73;;;7.10;99.90;;;;;;4926335;28;20042;-82
2023/05/19 02:27:28;;;;;;;19.77;10.13;;;7.10;99.90;;;;;;4974098;28;20054;-82
2023/05/19 02:29:55;;;;;;;20.95;10.23;;;7.10;99.90;;;;;;4910528;28;20051;-82
2023/05/19 02:32:21;;;;;;;21.48;10.10;;;7.10;99.90;;;;;;4957579;28;20073;-82
2023/05/19 02:34:46;;;;;;;16.65;10.18;;;7.20;99.90;;;;;;4957545;28;20047;-82
2023/05/19 02:37:13;;;;;;;18.83;9.32;;;7.10;99.90;;;;;;4957614;28;20043;-82
2023/05/19 02:39:40;;;;;;;20.45;10.30;;;7.10;99.90;;;;;;4941799;28;20055;-82
2023/05/19 02:42:06;;;;;;;20.30;10.32;;;7.10;99.90;;;;;;4957373;28;20074;-82
2023/05/19 02:44:32;;;;;;;18.73;9.60;;;7.10;99.90;;;;;;4940924;28;20098;-81
2023/05/19 02:46:57;;;;;;;19.52;9.90;;;7.10;99.90;;;;;;4973753;28;20042;-82
2023/05/19 02:49:26;;;;;;;18.92;9.90;;;7.10;99.90;;;;;;4973442;28;20042;-82
2023/05/19 02:51:52;;;;;;;15.23;8.20;;;7.20;99.90;;;;;;4973361;28;20071;-82
2023/05/19 02:54:18;;;;;;;19.85;10.60;;;7.10;99.90;;;;;;4941353;28;20078;-82
2023/05/19 02:56:43;;;;;;;23.60;11.30;;;7.10;99.90;;;;;;4957257;28;20039;-83
2023/05/19 02:59:09;;;;;;;20.65;10.40;;;7.10;99.90;;;;;;4957507;28;20061;-82
2023/05/19 03:01:36;;;;;;;25.20;11.02;;;7.00;99.90;;;;;;4957437;28;20035;-81
2023/05/19 03:04:02;;;;;;;20.63;10.38;;;7.00;99.90;;;;;;4957090;28;20101;-82
2023/05/19 03:06:28;;;;;;;17.63;9.23;;;7.00;99.90;;;;;;4957022;28;20098;-83
2023/05/19 03:08:54;;;;;;;26.17;11.05;;;6.90;99.90;;;;;;4973241;28;20038;-83
2023/05/19 03:11:20;;;;;;;19.02;9.45;;;6.90;99.90;;;;;;4957004;28;20046;-83
2023/05/19 03:13:45;;;;;;;21.77;9.60;;;7.00;99.90;;;;;;4972914;28;20096;-82
2023/05/19 03:16:12;;;;;;;18.75;9.38;;;7.00;99.90;;;;;;4973035;28;20043;-82
2023/05/19 03:18:38;;;;;;;20.50;9.40;;;6.90;99.90;;;;;;4941431;28;20487;-82
2023/05/19 03:21:04;;;;;;;14.75;8.38;;;6.90;99.90;;;;;;4973225;28;20134;-82
2023/05/19 03:23:30;;;;;;;22.15;9.93;;;7.00;99.90;;;;;;4941404;28;20047;-82
2023/05/19 03:25:56;;;;;;;16.70;8.45;;;6.90;99.90;;;;;;4973165;28;20453;-83
2023/05/19 03:28:22;;;;;;;16.20;8.18;;;6.90;99.90;;;;;;4973183;28;20050;-82
2023/05/19 03:30:51;;;;;;;14.38;8.52;;;6.90;99.90;;;;;;4925319;28;20145;-83
2023/05/19 03:33:17;;;;;;;15.90;8.30;;;7.00;99.90;;;;;;4972828;28;20059;-82
2023/05/19 03:35:43;;;;;;;12.68;7.57;;;7.00;99.90;;;;;;4972938;28;20055;-83
2023/05/19 03:38:09;;;;;;;14.65;8.30;;;7.00;99.90;;;;;;4941058;28;20491;-83
2023/05/19 03:40:35;;;;;;;19.05;9.63;;;7.00;99.90;;;;;;4940650;28;20074;-82
2023/05/19 03:43:01;;;;;;;18.48;9.65;;;7.10;99.90;;;;;;4973100;28;20101;-83
2023/05/19 03:45:27;;;;;;;20.90;10.40;;;7.00;99.90;;;;;;4940839;28;20051;-82
2023/05/19 03:47:52;;;;;;;18.88;9.40;;;6.90;99.90;;;;;;4956584;28;20050;-82
2023/05/19 03:50:18;;;;;;;15.48;9.02;;;6.90;99.90;;;;;;4972771;28;20490;-82
2023/05/19 03:52:46;;;;;;;16.42;9.40;;;6.90;99.90;;;;;;4972923;28;20525;-82
2023/05/19 03:55:13;;;;;;;19.23;10.45;;;6.80;99.90;;;;;;4972957;28;20050;-82
2023/05/19 03:57:40;;;;;;;18.08;9.20;;;6.80;99.90;;;;;;4976159;28;20046;-82
2023/05/19 04:00:07;;;;;;;16.20;8.05;;;6.80;99.90;;;;;;4976649;28;20050;-82
2023/05/19 04:02:32;;;;;;;16.23;8.98;;;6.80;99.90;;;;;;4976371;28;20093;-82
2023/05/19 04:04:58;;;;;;;17.52;9.43;;;6.90;99.90;;;;;;4944588;28;20078;-82
2023/05/19 04:07:24;;;;;;;27.55;12.80;;;6.90;99.90;;;;;;4944182;28;20043;-82
2023/05/19 04:09:50;;;;;;;23.25;11.00;;;6.90;99.90;;;;;;4960268;28;20052;-82
2023/05/19 04:12:16;;;;;;;20.75;10.20;;;6.90;99.90;;;;;;4960086;28;20402;-82
2023/05/19 04:14:41;;;;;;;19.40;10.65;;;6.90;99.90;;;;;;4976173;28;20034;-82
2023/05/19 04:17:07;;;;;;;16.70;9.95;;;7.00;99.90;;;;;;4960150;28;20046;-82
2023/05/19 04:19:33;;;;;;;17.05;9.40;;;7.00;99.90;;;;;;4943997;28;20042;-81
2023/05/19 04:21:59;;;;;;;19.95;11.32;;;7.00;99.90;;;;;;4944274;28;20042;-81
2023/05/19 04:24:25;;;;;;;18.67;10.35;;;7.00;99.90;;;;;;4960267;28;20125;-81
2023/05/19 04:26:52;;;;;;;19.20;11.48;;;7.10;99.90;;;;;;4960218;28;20126;-82
2023/05/19 04:29:18;;;;;;;17.48;10.48;;;7.10;99.90;;;;;;4928552;28;20043;-82
2023/05/19 04:31:44;;;;;;;20.38;11.27;;;7.10;99.90;;;;;;4959934;28;20410;-82
2023/05/19 04:34:10;;;;;;;17.17;10.85;;;7.10;99.90;;;;;;4959729;28;20134;-81
2023/05/19 04:36:36;;;;;;;17.77;10.63;;;7.20;99.90;;;;;;4959973;28;20074;-81
2023/05/19 04:39:06;;;;;;;19.20;10.80;;;7.20;99.90;;;;;;4976059;28;20522;-81
2023/05/19 04:41:32;;;;;;;22.00;11.65;;;7.20;99.90;;;;;;4959652;28;20053;-81
2023/05/19 04:44:01;;;;;;;17.23;10.40;;;7.20;99.90;;;;;;4959844;28;20093;-82
2023/05/19 04:46:28;;;;;;;17.60;10.98;;;7.20;99.90;;;;;;4943651;28;20046;-81
2023/05/19 04:48:55;;;;;;;18.92;11.38;;;7.20;99.90;;;;;;4959446;28;20049;-82
2023/05/19 04:51:26;;;;;;;18.65;10.73;;;7.30;99.90;;;;;;4959517;28;20082;-82
2023/05/19 04:53:55;;;;;;;18.67;10.70;;;7.30;99.90;;;;;;4959421;28;20050;-82
2023/05/19 04:56:21;;;;;;;19.33;11.45;;;7.40;99.90;;;;;;4943713;28;20130;-81
2023/05/19 04:58:48;;;;;;;18.75;11.88;;;7.60;99.90;;;;;;4959334;28;20078;-81
2023/05/19 05:01:14;;;;;;;20.13;11.75;;;7.80;99.90;;;;;;4975441;28;20039;-81
2023/05/19 05:03:41;;;;;;;17.20;10.68;;;7.90;99.90;;;;;;4943467;28;20051;-82
2023/05/19 05:06:07;;;;;;;21.40;12.13;;;8.10;99.90;;;;;;4927384;28;20078;-82
2023/05/19 05:08:33;;;;;;;18.95;11.55;;;8.40;99.90;;;;;;4958335;28;20495;-82
2023/05/19 05:10:59;;;;;;;17.88;11.15;;;8.90;99.90;;;;;;4959403;28;20052;-82
2023/05/19 05:13:26;;;;;;;17.50;11.00;;;9.00;99.90;;;;;;4975140;28;20120;-81
2023/05/19 05:15:52;;;;;;;18.15;10.55;;;9.20;99.90;;;;;;4975181;28;20050;-81
2023/05/19 05:18:19;;;;;;;14.82;9.27;;;9.50;99.90;;;;;;4927447;28;20046;-81
2023/05/19 05:20:45;;;;;;;15.05;8.82;;;10.10;99.90;;;;;;4943220;28;20043;-82
2023/05/19 05:23:15;;;;;;;17.27;8.82;;;11.20;99.90;;;;;;4943292;28;20069;-81
2023/05/19 05:25:41;;;;;;;13.55;8.43;;;11.60;99.90;;;;;;4975191;28;20053;-81
2023/05/19 05:28:07;;;;;;;13.10;7.80;;;12.00;99.90;;;;;;4943387;28;20066;-82
2023/05/19 05:30:34;;;;;;;11.82;8.07;;;12.40;99.90;;;;;;4942741;28;20043;-82
2023/05/19 05:33:00;;;;;;;17.13;8.65;;;12.70;99.90;;;;;;4942514;28;20047;-81
2023/05/19 05:35:27;;;;;;;16.40;8.23;;;12.80;99.90;;;;;;4975120;28;20514;-81
2023/05/19 05:37:53;;;;;;;14.05;7.50;;;13.10;99.90;;;;;;4942928;28;20043;-81
2023/05/19 05:40:19;;;;;;;15.13;7.90;;;13.50;99.90;;;;;;4926919;28;20129;-82
2023/05/19 05:42:48;;;;;;;13.25;7.57;;;13.80;99.90;;;;;;4943242;28;20129;-81
2023/05/19 05:45:14;;;;;;;13.82;7.72;;;14.20;99.90;;;;;;4958452;28;20047;-81
2023/05/19 05:47:43;;;;;;;11.20;6.68;;;14.50;99.90;;;;;;4974829;28;20494;-82
2023/05/19 05:50:09;;;;;;;12.30;7.07;;;15.60;99.90;;;;;;4942669;28;20043;-83
2023/05/19 05:52:36;;;;;;;12.18;7.30;;;15.80;99.90;;;;;;4926964;28;20047;-82
2023/05/19 05:55:11;;;;;;;14.00;7.50;;;15.80;99.90;;;;;;4974394;28;20097;-82
2023/05/19 05:57:40;;;;;;;10.70;6.53;;;15.70;99.90;;;;;;4942486;28;20042;-82
2023/05/19 06:00:14;;;;;;;11.82;6.60;;;15.70;99.90;;;;;;4974304;28;20042;-82
2023/05/19 06:02:48;;;;;;;12.65;7.03;;;16.80;99.90;;;;;;4943273;28;20069;-82
2023/05/19 06:05:17;;;;;;;9.98;5.85;;;16.50;99.90;;;;;;4942268;28;20058;-82
2023/05/19 06:07:43;;;;;;;11.38;6.03;;;17.10;99.90;;;;;;4942091;28;20057;-82
2023/05/19 06:10:09;;;;;;;12.35;6.93;;;17.00;99.90;;;;;;4974090;28;20042;-82
2023/05/19 06:12:38;;;;;;;14.07;6.78;;;16.70;99.90;;;;;;4973938;28;20038;-82
2023/05/19 06:15:05;;;;;;;12.85;6.65;;;16.50;99.90;;;;;;4926756;28;20083;-82
2023/05/19 06:17:33;;;;;;;12.10;6.82;;;16.40;99.90;;;;;;4942307;28;20034;-82
2023/05/19 06:20:04;;;;;;;13.15;6.53;;;16.10;99.90;;;;;;4973741;28;20043;-82
2023/05/19 06:22:30;;;;;;;12.40;6.80;;;16.00;99.90;;;;;;4974040;28;20086;-82
2023/05/19 06:24:59;;;;;;;11.52;6.25;;;16.20;99.90;;;;;;4942102;28;20085;-82
2023/05/19 06:27:25;;;;;;;9.50;6.13;;;16.50;99.90;;;;;;4974120;28;20053;-82
2023/05/19 06:29:51;;;;;;;12.10;6.07;;;17.60;99.90;;;;;;4926001;28;20039;-84
2023/05/19 06:32:16;;;;;;;11.25;5.63;;;17.70;94.20;;;;;;4941558;28;20529;-81
2023/05/19 06:34:42;;;;;;;12.38;5.88;;;17.60;96.10;;;;;;4973749;28;20050;-81
2023/05/19 06:37:08;;;;;;;10.32;4.90;;;17.60;96.70;;;;;;4973548;28;20502;-83
2023/05/19 06:39:34;;;;;;;12.10;5.38;;;17.80;95.90;;;;;;4957630;28;20045;-83
2023/05/19 06:41:59;;;;;;;10.65;5.10;;;17.20;91.40;;;;;;4973609;28;20117;-83
2023/05/19 06:44:25;;;;;;;10.68;5.10;;;17.80;94.40;;;;;;4941557;28;20490;-82
2023/05/19 06:46:51;;;;;;;10.98;5.05;;;17.50;93.20;;;;;;4973445;28;20419;-83
2023/05/19 06:49:17;;;;;;;9.95;4.88;;;18.70;95.80;;;;;;4973719;28;20039;-82
2023/05/19 06:51:43;;;;;;;14.00;5.55;;;18.70;91.60;;;;;;4973753;28;20051;-82
2023/05/19 06:54:11;;;;;;;10.25;5.40;;;18.20;86.70;;;;;;4973262;28;20050;-82
2023/05/19 06:56:37;;;;;;;12.50;5.35;;;18.50;92.20;;;;;;4941594;28;20053;-82
2023/05/19 06:59:03;;;;;;;10.60;5.07;;;17.80;90.10;;;;;;4973325;28;20038;-81
2023/05/19 07:01:29;;;;;;;11.75;5.10;;;17.70;90.10;;;;;;4941471;28;20050;-82
2023/05/19 07:03:57;;;;;;;10.90;4.85;;;17.20;92.10;;;;;;4940909;28;20051;-82
2023/05/19 07:06:23;;;;;;;11.88;5.65;;;17.80;92.30;;;;;;4973079;28;20103;-82
2023/05/19 07:08:49;;;;;;;10.90;4.72;;;17.30;88.40;;;;;;4925680;28;20074;-82
2023/05/19 07:11:14;;;;;;;10.32;4.57;;;17.80;91.80;;;;;;4957371;28;20039;-82
2023/05/19 07:13:40;;;;;;;10.10;4.40;;;18.60;90.60;;;;;;4957048;28;20392;-83
2023/05/19 07:16:06;;;;;;;8.13;4.20;;;18.70;86.40;;;;;;4957146;28;20123;-84
2023/05/19 07:18:32;;;;;;;7.97;3.45;;;18.30;81.00;;;;;;4957019;28;20151;-84
2023/05/19 07:20:58;;;;;;;10.68;3.88;;;18.50;81.90;;;;;;4925282;28;20034;-84
2023/05/19 07:23:23;;;;;;;9.35;3.50;;;18.50;78.40;;;;;;4957032;28;20053;-87
2023/05/19 07:25:54;;;;;;;9.13;4.00;;;18.60;73.80;;;;;;4941019;28;20554;-84
2023/05/19 07:28:19;;;;;;;10.38;3.90;;;18.50;77.90;;;;;;4957147;28;20043;-84
2023/05/19 07:30:45;;;;;;;9.02;3.80;;;19.00;82.80;;;;;;4942835;28;20043;-83
2023/05/19 07:33:11;;;;;;;9.80;3.50;;;19.40;78.30;;;;;;4947170;28;20055;-84
2023/05/19 07:35:37;;;;;;;10.65;3.63;;;19.60;79.00;;;;;;4963178;28;20094;-84
2023/05/19 07:38:02;;;;;;;9.75;3.38;;;19.70;74.90;;;;;;4979222;28;20053;-85
2023/05/19 07:40:28;;;;;;;9.00;3.42;;;19.90;70.00;;;;;;4931438;28;20043;-85
2023/05/19 07:42:54;;;;;;;9.32;3.15;;;19.80;67.90;;;;;;4963433;28;20561;-86
2023/05/19 07:45:20;;;;;;;8.52;3.30;;;19.70;67.80;;;;;;4931390;28;20133;-86
2023/05/19 07:47:45;;;;;;;9.23;3.20;;;19.20;69.40;;;;;;4947210;28;20043;-87
2023/05/19 07:50:11;;;;;;;10.07;3.35;;;19.20;65.20;;;;;;4947267;28;20042;-87
2023/05/19 07:52:37;;;;;;;8.32;2.80;;;18.40;65.00;;;;;;4963098;28;20081;-87
2023/05/19 07:55:03;;;;;;;8.38;2.97;;;18.30;68.00;;;;;;4963251;28;20039;-87
2023/05/19 07:57:28;;;;;;;8.77;2.88;;;18.20;65.90;;;;;;4963097;28;20039;-86
2023/05/19 07:59:54;;;;;;;8.27;2.80;;;18.70;68.70;;;;;;4963042;28;20483;-87
2023/05/19 08:02:20;;;;;;;9.27;2.75;;;18.10;65.30;;;;;;4947436;28;20097;-88
2023/05/19 08:04:47;;;;;;;10.57;2.83;;;18.00;66.30;;;;;;4963253;28;20039;-88
2023/05/19 08:07:13;;;;;;;9.63;2.85;;;18.40;66.80;;;;;;4946027;28;20502;-87
2023/05/19 08:09:39;;;;;;;7.85;3.00;;;18.80;67.70;;;;;;4946763;28;20050;-87
2023/05/19 08:12:04;;;;;;;9.65;2.63;;;19.00;66.50;;;;;;4946868;28;20054;-86
2023/05/19 08:14:32;;;;;;;10.40;3.00;;;19.40;63.30;;;;;;4979339;28;20050;-86
2023/05/19 08:16:57;;;;;;;10.63;2.80;;;19.60;61.20;;;;;;4979500;28;20097;-87
2023/05/19 08:19:23;;;;;;;8.45;2.60;;;19.60;63.70;;;;;;4931196;28;20040;-87
2023/05/19 08:21:49;;;;;;;9.02;2.53;;;19.40;60.90;;;;;;4982358;28;20098;-85
2023/05/19 08:24:15;;;;;;;9.48;2.50;;;19.10;61.40;;;;;;5003210;28;20498;-85
2023/05/19 08:26:42;;;;;;;9.48;2.70;;;19.10;62.30;;;;;;5002914;28;20051;-86
2023/05/19 08:29:08;;;;;;;10.30;3.17;;;19.50;62.90;;;;;;4987870;28;20034;-85
2023/05/19 08:31:34;;;;;;;7.88;2.75;;;19.20;61.30;;;;;;4989888;28;20073;-84
2023/05/19 08:33:59;;;;;;;7.63;2.50;;;19.30;61.60;;;;;;4947822;28;20047;-85
2023/05/19 08:36:26;;;;;;;8.98;2.40;;;19.50;61.40;;;;;;4963519;28;20042;-87
2023/05/19 08:38:52;;;;;;;6.97;2.58;;;19.90;59.40;;;;;;4979833;28;20051;-86
2023/05/19 08:41:18;;;;;;;8.70;2.50;;;20.30;62.20;;;;;;4979191;28;20050;-86
2023/05/19 08:43:44;;;;;;;8.90;2.40;;;20.20;57.40;;;;;;4976407;28;20402;-86
2023/05/19 08:46:13;;;;;;;8.40;2.30;;;20.10;56.60;;;;;;4975835;28;20050;-85
2023/05/19 08:48:44;;;;;;;8.18;2.60;;;20.30;53.50;;;;;;4944039;28;20054;-86
2023/05/19 08:51:25;;;;;;;9.25;2.60;;;20.40;57.50;;;;;;4976046;28;20054;-86
2023/05/19 08:53:56;;;;;;;9.90;2.53;;;20.70;56.50;;;;;;4975918;28;20070;-86
2023/05/19 08:56:24;;;;;;;8.95;3.00;;;20.70;54.00;;;;;;4975551;28;20042;-85
2023/05/19 08:58:50;;;;;;;8.75;2.65;;;20.40;55.80;;;;;;4943822;28;20517;-85
2023/05/19 09:01:18;;;;;;;8.90;2.60;;;20.50;56.80;;;;;;4943619;28;20487;-86
2023/05/19 09:03:48;;;;;;;9.32;2.60;;;20.60;57.10;;;;;;4975422;28;20051;-86
2023/05/19 09:06:14;;;;;;;11.75;2.90;;;20.70;55.30;;;;;;4975244;28;20121;-86
2023/05/19 09:08:41;;;;;;;8.15;2.53;;;20.70;55.20;;;;;;4975681;28;20510;-87
2023/05/19 09:11:11;;;;;;;8.05;2.90;;;20.80;53.00;;;;;;4975674;28;20478;-87
2023/05/19 09:13:40;;;;;;;7.80;2.60;;;20.90;54.90;;;;;;4976655;28;20391;-85
2023/05/19 09:16:06;;;;;;;8.38;2.42;;;20.60;53.60;;;;;;4943396;28;20509;-88
2023/05/19 09:18:32;;;;;;;7.68;2.63;;;20.50;53.00;;;;;;4927434;28;20057;-87
2023/05/19 09:21:01;;;;;;;6.82;2.15;;;20.60;55.50;;;;;;4943071;28;20039;-88
2023/05/19 09:23:32;;;;;;;9.43;2.83;;;20.70;55.50;;;;;;4975093;28;20054;-88
2023/05/19 09:26:03;;;;;;;8.68;2.28;;;20.70;54.60;;;;;;4975375;28;20054;-88
2023/05/19 09:28:34;;;;;;;8.73;2.78;;;20.50;51.90;;;;;;4943549;28;20043;-86
2023/05/19 09:31:08;;;;;;;8.05;2.45;;;20.20;55.00;;;;;;4975095;28;20125;-88
2023/05/19 09:33:36;;;;;;;9.15;2.75;;;20.20;54.10;;;;;;4974856;28;20405;-87
2023/05/19 09:36:04;;;;;;;9.00;2.65;;;19.80;55.10;;;;;;4943036;28;20494;-87
2023/05/19 09:38:30;;;;;;;7.90;2.50;;;20.40;57.20;;;;;;4975354;28;20368;-88
2023/05/19 09:40:58;;;;;;;9.60;2.50;;;20.60;56.00;;;;;;4975018;28;20512;-86
2023/05/19 09:43:27;;;;;;;7.95;2.40;;;20.20;52.00;;;;;;4975056;28;20047;-87
2023/05/19 09:46:04;;;;;;;8.95;2.72;;;20.10;53.20;;;;;;4974721;28;20054;-87
2023/05/19 09:48:29;;;;;;;9.73;2.50;;;20.00;54.70;;;;;;4959087;28;20495;-88
2023/05/19 09:50:56;;;;;;;8.35;2.70;;;20.50;54.10;;;;;;4974598;28;20101;-86
2023/05/19 09:53:24;;;;;;;8.18;2.60;;;20.30;54.40;;;;;;4979301;28;20129;-89
2023/05/19 09:55:54;;;;;;;9.45;2.70;;;20.70;55.40;;;;;;4946925;28;20093;-85
2023/05/19 09:58:20;;;;;;;10.05;2.60;;;20.60;54.40;;;;;;4948510;28;20038;-86
2023/05/19 10:00:47;;;;;;;7.40;2.30;;;20.60;53.00;;;;;;4949738;28;20121;-88
2023/05/19 10:03:13;;;;;;;8.07;2.40;;;20.70;52.80;;;;;;4948259;28;20050;-87
2023/05/19 10:05:43;;;;;;;9.60;2.45;;;20.80;54.20;;;;;;4927654;28;20125;-87
2023/05/19 10:08:11;;;;;;;9.27;2.75;;;20.80;52.90;;;;;;4937643;29;20043;-89
2023/05/19 10:10:37;;;;;;;8.73;2.70;;;20.80;53.80;;;;;;4955335;29;20070;-85
2023/05/19 10:13:05;;;;;;;9.85;2.60;;;20.70;55.90;;;;;;4896564;29;20415;-88
2023/05/19 10:15:30;;;;;;;7.65;2.17;;;20.90;57.40;;;;;;4959276;28;20047;-88
2023/05/19 10:17:58;;;;;;;7.75;2.40;;;20.80;56.00;;;;;;4954883;29;20054;-85
2023/05/19 10:20:25;;;;;;;10.18;2.42;;;20.90;51.40;;;;;;4955160;29;20050;-88
2023/05/19 10:22:51;;;;;;;7.68;2.40;;;21.00;54.50;;;;;;4954845;29;20141;-88
2023/05/19 10:25:18;;;;;;;8.30;2.30;;;21.10;52.20;;;;;;4954673;29;20067;-89
2023/05/19 10:27:58;;;;;;;9.55;2.65;;;21.20;55.60;;;;;;4954652;29;20130;-88
2023/05/19 10:30:49;;;;;;;7.90;2.50;;;21.30;55.00;;;;;;4954647;29;20042;-89
2023/05/19 10:33:17;;;;;;;10.30;4.22;;;21.20;56.50;;;;;;4954553;29;20503;-87
2023/05/19 10:36:08;;;;;;;10.52;3.40;;;21.10;51.40;;;;;;4954507;29;20106;-88
2023/05/19 10:38:59;;;;;;;8.60;2.78;;;20.80;53.00;;;;;;4957520;28;20137;-86
2023/05/19 10:41:45;;;;;;;8.80;2.80;;;20.30;53.70;;;;;;4973576;28;20097;-87
2023/05/19 10:44:35;;;;;;;7.85;2.40;;;20.20;54.20;;;;;;4941569;28;20053;-87
2023/05/19 10:47:10;;;;;;;8.30;2.42;;;20.50;55.80;;;;;;4957615;28;20499;-86
2023/05/19 10:49:36;;;;;;;10.30;2.88;;;20.40;56.30;;;;;;4941698;28;20046;-88
2023/05/19 10:52:03;;;;;;;10.23;2.65;;;20.70;54.90;;;;;;4957639;28;20046;-89
2023/05/19 10:54:44;;;;;;;7.18;2.20;;;20.90;55.40;;;;;;4957373;28;20625;-87
2023/05/19 10:57:15;;;;;;;7.70;2.20;;;21.30;52.50;;;;;;4973772;28;20043;-89
2023/05/19 10:59:43;;;;;;;8.65;2.47;;;21.40;51.20;;;;;;4941752;28;20070;-88
2023/05/19 11:02:09;;;;;;;10.80;2.40;;;21.30;52.70;;;;;;4957669;28;20054;-88
2023/05/19 11:04:57;;;;;;;8.48;2.40;;;21.10;51.70;;;;;;4957260;28;20133;-90
2023/05/19 11:07:23;;;;;;;9.10;2.75;;;20.90;52.70;;;;;;4956605;28;20051;-87
2023/05/19 11:09:53;;;;;;;9.88;2.60;;;20.50;53.70;;;;;;4957502;28;20133;-88
2023/05/19 11:12:22;;;;;;;8.30;2.53;;;19.90;52.40;;;;;;4957521;28;20501;-88
2023/05/19 11:14:52;;;;;;;9.43;4.00;;;20.00;53.20;;;;;;4957465;28;20085;-90
2023/05/19 11:17:22;;;;;;;7.40;2.20;;;20.10;53.80;;;;;;4941445;28;20038;-89
2023/05/19 11:19:56;;;;;;;6.60;2.10;;;20.30;54.40;;;;;;4957333;28;20046;-89
2023/05/19 11:22:28;;;;;;;7.95;2.13;;;20.80;53.50;;;;;;4957426;28;20487;-87
2023/05/19 11:24:54;;;;;;;;;;;21.10;52.90;;;;;;4957584;28;20039;-88
2023/05/19 11:27:32;;;;;;;9.43;2.40;;;20.90;52.70;;;;;;4957307;28;19918;-88
2023/05/19 11:30:13;;;;;;;8.55;2.60;;;20.70;54.40;;;;;;4957443;28;20490;-88
2023/05/19 11:32:41;;;;;;;8.50;2.50;;;20.50;54.60;;;;;;4957017;28;20193;-86
2023/05/19 11:35:08;;;;;;;8.80;2.50;;;20.80;55.10;;;;;;4946313;29;20039;-87
2023/05/19 11:37:35;;;;;;;7.68;2.10;;;20.60;55.50;;;;;;4886456;29;20521;-88
2023/05/19 11:40:04;;;;;;;9.35;2.70;;;20.90;55.20;;;;;;4957030;28;20128;-84
2023/05/19 11:42:30;;;;;;;10.40;2.42;;;20.80;55.20;;;;;;4956845;28;20047;-89
2023/05/19 11:44:59;;;;;;;7.57;2.40;;;21.00;52.80;;;;;;4957747;28;20039;-89
2023/05/19 11:47:30;;;;;;;7.65;2.30;;;21.10;52.80;;;;;;4957038;28;20046;-86
2023/05/19 11:49:56;;;;;;;7.18;2.28;;;20.90;51.90;;;;;;4956682;28;20049;-87
2023/05/19 11:52:23;;;;;;;8.07;2.45;;;20.70;52.90;;;;;;4925163;28;20121;-87
2023/05/19 11:54:49;;;;;;;8.90;2.42;;;20.70;52.60;;;;;;4957082;28;20038;-87
2023/05/19 11:57:15;;;;;;;8.23;2.45;;;20.80;53.20;;;;;;4957239;28;20043;-89
2023/05/19 11:59:44;;;;;;;9.02;2.50;;;21.00;52.30;;;;;;4957178;28;20574;-88
2023/05/19 12:02:20;;;;;;;10.07;2.55;;;20.90;51.20;;;;;;4956940;28;20049;-89
2023/05/19 12:04:48;;;;;;;8.38;2.75;;;21.20;54.10;;;;;;4956754;28;20041;-87
2023/05/19 12:07:23;;;;;;;10.95;2.53;;;21.00;53.00;;;;;;4956755;28;20510;-87
2023/05/19 12:09:52;;;;;;;9.70;2.70;;;21.10;50.90;;;;;;4972785;28;20054;-87
2023/05/19 12:12:21;;;;;;;7.95;2.70;;;20.90;53.10;;;;;;4940954;28;20054;-88
2023/05/19 12:14:51;;;;;;;7.13;2.30;;;20.80;54.50;;;;;;4972762;28;20126;-87
2023/05/19 12:17:22;;;;;;;9.07;2.58;;;20.70;55.30;;;;;;4926504;28;20061;-85
2023/05/19 12:19:49;;;;;;;9.90;2.47;;;20.50;52.50;;;;;;4944354;28;20046;-87
2023/05/19 12:22:16;;;;;;;7.72;2.13;;;20.70;51.50;;;;;;4976515;28;20394;-87
2023/05/19 12:24:43;;;;;;;7.68;2.67;;;20.80;52.50;;;;;;4976643;28;20074;-87
2023/05/19 12:27:12;;;;;;;9.73;2.40;;;21.10;52.30;;;;;;4976216;28;20050;-87
2023/05/19 12:29:39;;;;;;;8.32;2.35;;;21.20;50.30;;;;;;4972240;28;20062;-86
2023/05/19 12:32:08;;;;;;;9.05;2.58;;;21.20;50.50;;;;;;4916422;28;20423;-87
2023/05/19 12:34:36;;;;;;;10.77;2.65;;;21.20;49.70;;;;;;4940976;29;20050;-88
2023/05/19 12:37:03;;;;;;;9.27;2.40;;;20.90;52.60;;;;;;4948013;28;20174;-86
2023/05/19 12:39:29;;;;;;;9.07;2.60;;;20.70;52.70;;;;;;4960212;28;20519;-86
2023/05/19 12:42:07;;;;;;;9.25;2.63;;;20.40;53.90;;;;;;4928100;28;20043;-86
2023/05/19 12:44:46;;;;;;;8.80;2.50;;;20.20;54.70;;;;;;4975885;28;20058;-85
2023/05/19 12:47:16;;;;;;;8.55;2.83;;;20.20;55.80;;;;;;4943939;28;20535;-84
2023/05/19 12:50:00;;;;;;;8.48;2.38;;;20.50;52.90;;;;;;4976110;28;20494;-86